Time;durP1;ratioP1;P1;durP2;ratioP2;P2;SDS_P1;SDS_P2;PMS_P1;PMS_P2;Temp;Humidity;BMP_temperature;BMP_pressure;BME280_temperature;BME280_humidity;BME280_pressure;Samples;Min_cycle;Max_cycle;Signal;HPM_P1;HPM_P2
2023/01/13 00:00:47;;;;;;;1.33;0.70;;;;;;;;;;5093878;28;20891;-59
2023/01/13 00:03:14;;;;;;;0.80;0.70;;;;;;;;;;5093742;28;20482;-58
2023/01/13 00:05:41;;;;;;;0.90;0.80;;;;;;;;;;5093699;28;20447;-59
2023/01/13 00:08:09;;;;;;;0.80;0.70;;;;;;;;;;5093658;28;20526;-58
2023/01/13 00:10:36;;;;;;;2.70;0.60;;;;;;;;;;5093506;28;20443;-58
2023/01/13 00:13:04;;;;;;;1.00;0.63;;;;;;;;;;5093554;28;20470;-59
2023/01/13 00:15:32;;;;;;;1.33;0.70;;;;;;;;;;5093548;28;20485;-59
2023/01/13 00:17:58;;;;;;;0.80;0.70;;;;;;;;;;5093559;28;20449;-58
2023/01/13 00:20:25;;;;;;;1.57;0.70;;;;;;;;;;5093460;28;20534;-59
2023/01/13 00:22:54;;;;;;;0.73;0.73;;;;;;;;;;5093374;28;20447;-59
2023/01/13 00:25:22;;;;;;;1.17;0.60;;;;;;;;;;5093176;28;20443;-58
2023/01/13 00:27:49;;;;;;;1.10;0.70;;;;;;;;;;5093431;28;20554;-59
2023/01/13 00:30:16;;;;;;;1.00;0.70;;;;;;;;;;5093008;28;20802;-58
2023/01/13 00:32:43;;;;;;;0.70;0.60;;;;;;;;;;5093102;28;20997;-59
2023/01/13 00:35:10;;;;;;;1.17;1.07;;;;;;;;;;5093118;28;20942;-59
2023/01/13 00:37:38;;;;;;;0.80;0.70;;;;;;;;;;5093188;28;20861;-58
2023/01/13 00:40:05;;;;;;;0.60;0.60;;;;;;;;;;5093326;28;20441;-60
2023/01/13 00:45:18;;;;;;;0.80;0.67;;;;;;;;;;5093157;28;20537;-59
2023/01/13 00:47:45;;;;;;;0.70;0.60;;;;;;;;;;5092997;28;20972;-58
2023/01/13 00:50:12;;;;;;;0.80;0.60;;;;;;;;;;5092924;28;20449;-58
2023/01/13 00:52:39;;;;;;;0.70;0.57;;;;;;;;;;5093061;28;20528;-59
2023/01/13 00:55:07;;;;;;;1.00;0.67;;;;;;;;;;5093113;28;20533;-59
2023/01/13 00:57:35;;;;;;;0.60;0.60;;;;;;;;;;5093054;28;20930;-58
2023/01/13 01:00:03;;;;;;;0.90;0.60;;;;;;;;;;5093009;28;20451;-59
2023/01/13 01:02:29;;;;;;;0.80;0.70;;;;;;;;;;5092943;28;20451;-59
2023/01/13 01:04:58;;;;;;;1.00;0.70;;;;;;;;;;5092825;28;20934;-59
2023/01/13 01:07:25;;;;;;;0.80;0.70;;;;;;;;;;5093057;28;20525;-59
2023/01/13 01:09:52;;;;;;;0.73;0.70;;;;;;;;;;5092974;28;20450;-58
2023/01/13 01:12:19;;;;;;;1.10;0.77;;;;;;;;;;5092687;28;20985;-59
2023/01/13 01:14:47;;;;;;;1.00;0.60;;;;;;;;;;5092818;28;20501;-59
2023/01/13 01:17:14;;;;;;;0.80;0.60;;;;;;;;;;5092745;28;20454;-59
2023/01/13 01:19:41;;;;;;;0.80;0.80;;;;;;;;;;5092947;28;20447;-59
2023/01/13 01:22:08;;;;;;;1.30;0.70;;;;;;;;;;5092864;28;20881;-58
2023/01/13 01:24:35;;;;;;;0.93;0.67;;;;;;;;;;5092803;28;20455;-59
2023/01/13 01:27:02;;;;;;;0.60;0.60;;;;;;;;;;5092661;28;20472;-58
2023/01/13 01:29:29;;;;;;;1.00;0.60;;;;;;;;;;5092644;28;20450;-59
2023/01/13 01:31:58;;;;;;;2.30;0.70;;;;;;;;;;5092603;28;20479;-59
2023/01/13 01:34:25;;;;;;;1.23;0.60;;;;;;;;;;5092663;28;20487;-59
2023/01/13 01:36:52;;;;;;;1.00;0.70;;;;;;;;;;5092764;28;20451;-59
2023/01/13 01:39:19;;;;;;;1.00;0.60;;;;;;;;;;5092805;28;20447;-59
2023/01/13 01:44:46;;;;;;;1.87;0.70;;;;;;;;;;5096129;28;20478;-59
2023/01/13 01:47:17;;;;;;;2.63;0.80;;;;;;;;;;5096481;28;20450;-59
2023/01/13 01:49:44;;;;;;;1.00;0.60;;;;;;;;;;5096380;28;20474;-59
2023/01/13 01:52:12;;;;;;;0.70;0.60;;;;;;;;;;5096243;28;20446;-59
2023/01/13 01:54:43;;;;;;;1.43;0.60;;;;;;;;;;5095969;28;20486;-59
2023/01/13 01:57:11;;;;;;;0.70;0.60;;;;;;;;;;5096337;28;20450;-60
2023/01/13 01:59:39;;;;;;;0.63;0.50;;;;;;;;;;5096256;28;20817;-59
2023/01/13 02:02:06;;;;;;;1.00;0.60;;;;;;;;;;5096139;28;20541;-59
2023/01/13 02:04:35;;;;;;;1.00;0.90;;;;;;;;;;5096008;28;20483;-59
2023/01/13 02:07:03;;;;;;;1.33;0.60;;;;;;;;;;5095907;28;20447;-60
2023/01/13 02:09:30;;;;;;;1.07;0.60;;;;;;;;;;5095766;28;20453;-59
2023/01/13 02:14:43;;;;;;;0.60;0.57;;;;;;;;;;5095829;28;20500;-59
2023/01/13 02:17:23;;;;;;;0.70;0.50;;;;;;;;;;5095747;28;20536;-59
2023/01/13 02:20:19;;;;;;;0.87;0.60;;;;;;;;;;5095614;28;20451;-59
2023/01/13 02:23:06;;;;;;;0.60;0.60;;;;;;;;;;5095881;28;20529;-59
2023/01/13 02:25:54;;;;;;;0.77;0.60;;;;;;;;;;5095653;28;20881;-59
2023/01/13 02:31:40;;;;;;;0.73;0.67;;;;;;;;;;5090966;28;20447;-59
2023/01/13 02:31:42;;;;;;;0.70;0.50;;;;;;;;;;5095445;28;20453;-59
2023/01/13 02:34:10;;;;;;;1.07;0.60;;;;;;;;;;5095317;28;20489;-60
2023/01/13 02:36:40;;;;;;;0.80;0.60;;;;;;;;;;5095545;28;20439;-59
2023/01/13 02:39:10;;;;;;;1.10;0.50;;;;;;;;;;5095416;28;20539;-59
2023/01/13 02:44:26;;;;;;;0.77;0.50;;;;;;;;;;5095152;28;20672;-58
2023/01/13 02:46:57;;;;;;;0.70;0.60;;;;;;;;;;5095059;28;20533;-59
2023/01/13 02:49:28;;;;;;;0.60;0.40;;;;;;;;;;5095159;28;20513;-59
2023/01/13 02:51:58;;;;;;;0.97;0.80;;;;;;;;;;5094988;28;20953;-59
2023/01/13 02:54:27;;;;;;;0.70;0.60;;;;;;;;;;5095065;28;20479;-59
2023/01/13 02:56:55;;;;;;;0.60;0.50;;;;;;;;;;5095049;28;20475;-58
2023/01/13 02:59:24;;;;;;;0.70;0.50;;;;;;;;;;5094834;28;20446;-59
2023/01/13 03:01:53;;;;;;;0.60;0.50;;;;;;;;;;5094874;28;20942;-59
2023/01/13 03:04:35;;;;;;;1.53;0.50;;;;;;;;;;5094956;28;20802;-59
2023/01/13 03:07:07;;;;;;;0.70;0.60;;;;;;;;;;5094507;28;20542;-59
2023/01/13 03:09:37;;;;;;;0.60;0.50;;;;;;;;;;5094915;28;20490;-59
2023/01/13 03:12:08;;;;;;;0.60;0.50;;;;;;;;;;5094896;28;20445;-59
2023/01/13 03:14:36;;;;;;;1.13;0.50;;;;;;;;;;5094742;28;20483;-59
2023/01/13 03:17:16;;;;;;;0.70;0.50;;;;;;;;;;5094495;28;20451;-59
2023/01/13 03:19:45;;;;;;;0.87;0.60;;;;;;;;;;5094528;28;20451;-59
2023/01/13 03:22:18;;;;;;;0.67;0.50;;;;;;;;;;5094325;28;20538;-59
2023/01/13 03:24:48;;;;;;;0.63;0.57;;;;;;;;;;5094632;28;20819;-59
2023/01/13 03:27:17;;;;;;;0.67;0.53;;;;;;;;;;5094509;28;20474;-59
2023/01/13 03:29:46;;;;;;;0.60;0.50;;;;;;;;;;5094341;28;20447;-58
2023/01/13 03:32:15;;;;;;;0.60;0.50;;;;;;;;;;5094277;28;20482;-59
2023/01/13 03:34:45;;;;;;;0.87;0.87;;;;;;;;;;5094041;28;20479;-59
2023/01/13 03:37:15;;;;;;;0.60;0.40;;;;;;;;;;5094395;28;20541;-59
2023/01/13 03:39:44;;;;;;;1.70;0.50;;;;;;;;;;5094288;28;20541;-59
2023/01/13 03:42:13;;;;;;;0.80;0.60;;;;;;;;;;5094246;28;20962;-59
2023/01/13 03:44:42;;;;;;;0.60;0.60;;;;;;;;;;5093985;28;20606;-59
2023/01/13 03:47:12;;;;;;;0.60;0.50;;;;;;;;;;5093911;28;20451;-59
2023/01/13 03:49:42;;;;;;;0.60;0.47;;;;;;;;;;5094177;28;20505;-60
2023/01/13 03:52:11;;;;;;;1.20;0.60;;;;;;;;;;5094131;28;20439;-59
2023/01/13 03:54:44;;;;;;;0.50;0.50;;;;;;;;;;5093853;28;20515;-59
2023/01/13 03:57:14;;;;;;;0.60;0.53;;;;;;;;;;5093784;28;20960;-59
2023/01/13 03:59:43;;;;;;;0.70;0.60;;;;;;;;;;5093657;28;20798;-59
2023/01/13 04:02:13;;;;;;;0.60;0.47;;;;;;;;;;5094038;28;20856;-60
2023/01/13 04:04:42;;;;;;;0.60;0.50;;;;;;;;;;5093121;28;20454;-58
2023/01/13 04:07:13;;;;;;;0.60;0.50;;;;;;;;;;5093582;28;20442;-59
2023/01/13 04:09:46;;;;;;;2.40;0.60;;;;;;;;;;5093650;28;20814;-59
2023/01/13 04:12:16;;;;;;;0.60;0.50;;;;;;;;;;5093529;28;20542;-59
2023/01/13 04:14:44;;;;;;;0.70;0.60;;;;;;;;;;5093563;28;20489;-59
2023/01/13 04:17:11;;;;;;;1.17;0.60;;;;;;;;;;5093610;28;20447;-59
2023/01/13 04:19:38;;;;;;;1.73;0.50;;;;;;;;;;5093568;28;20882;-59
2023/01/13 04:22:05;;;;;;;0.73;0.47;;;;;;;;;;5093413;28;20853;-59
2023/01/13 04:24:31;;;;;;;1.10;0.57;;;;;;;;;;5093220;28;20537;-60
2023/01/13 04:27:00;;;;;;;0.87;0.50;;;;;;;;;;5093236;28;20454;-59
2023/01/13 04:29:27;;;;;;;0.97;0.87;;;;;;;;;;5093336;28;20451;-59
2023/01/13 04:31:54;;;;;;;0.63;0.60;;;;;;;;;;5093583;28;20453;-59
2023/01/13 04:34:21;;;;;;;2.20;0.50;;;;;;;;;;5093075;28;20550;-59
2023/01/13 04:36:47;;;;;;;0.67;0.63;;;;;;;;;;5093211;28;20482;-58
2023/01/13 04:39:14;;;;;;;0.57;0.50;;;;;;;;;;5093036;28;20530;-59
2023/01/13 04:42:01;;;;;;;1.43;0.50;;;;;;;;;;5093262;28;20455;-59
2023/01/13 04:44:33;;;;;;;0.70;0.50;;;;;;;;;;5093149;28;20518;-59
2023/01/13 04:47:01;;;;;;;0.60;0.50;;;;;;;;;;5093067;28;20454;-58
2023/01/13 04:49:28;;;;;;;0.60;0.40;;;;;;;;;;5092957;28;20459;-58
2023/01/13 04:51:55;;;;;;;1.57;0.40;;;;;;;;;;5092849;28;20443;-59
2023/01/13 04:54:22;;;;;;;0.60;0.50;;;;;;;;;;5093074;28;20479;-60
2023/01/13 04:56:49;;;;;;;0.70;0.50;;;;;;;;;;5093012;28;20541;-59
2023/01/13 04:59:16;;;;;;;0.60;0.50;;;;;;;;;;5093412;28;20457;-58
2023/01/13 05:01:44;;;;;;;0.50;0.40;;;;;;;;;;5093173;28;20548;-58
2023/01/13 05:04:14;;;;;;;2.90;0.57;;;;;;;;;;5092625;28;20473;-59
2023/01/13 05:06:41;;;;;;;0.80;0.40;;;;;;;;;;5092939;28;20451;-58
2023/01/13 05:09:08;;;;;;;0.87;0.63;;;;;;;;;;5092875;28;20447;-59
2023/01/13 05:17:05;;;;;;;1.43;0.53;;;;;;;;;;5096398;28;20430;-59
2023/01/13 05:19:33;;;;;;;0.60;0.60;;;;;;;;;;5096914;28;20448;-59
2023/01/13 05:27:30;;;;;;;0.60;0.40;;;;;;;;;;5097027;28;20434;-59
2023/01/13 05:29:57;;;;;;;0.87;0.60;;;;;;;;;;5096776;28;20858;-59
2023/01/13 05:32:26;;;;;;;0.60;0.50;;;;;;;;;;5096754;28;20445;-59
2023/01/13 05:34:53;;;;;;;2.93;0.83;;;;;;;;;;5096403;28;20478;-59
2023/01/13 05:37:20;;;;;;;0.80;0.50;;;;;;;;;;5096468;28;20447;-59
2023/01/13 05:45:17;;;;;;;0.90;0.60;;;;;;;;;;5096399;28;20470;-59
2023/01/13 05:47:45;;;;;;;0.63;0.60;;;;;;;;;;5096178;28;20453;-59
2023/01/13 05:50:12;;;;;;;0.87;0.50;;;;;;;;;;5096415;28;20545;-59
2023/01/13 05:52:39;;;;;;;1.30;0.60;;;;;;;;;;5096184;28;20821;-59
2023/01/13 05:55:06;;;;;;;0.80;0.60;;;;;;;;;;5096149;28;20698;-59
2023/01/13 05:57:34;;;;;;;0.60;0.50;;;;;;;;;;5096111;28;20825;-59
2023/01/13 06:00:01;;;;;;;0.67;0.57;;;;;;;;;;5096065;28;20447;-58
2023/01/13 06:02:28;;;;;;;0.97;0.53;;;;;;;;;;5095856;28;20543;-60
2023/01/13 06:04:56;;;;;;;0.70;0.60;;;;;;;;;;5095838;28;20486;-59
2023/01/13 06:07:23;;;;;;;0.60;0.50;;;;;;;;;;5096011;28;20447;-59
2023/01/13 06:09:50;;;;;;;0.63;0.50;;;;;;;;;;5095767;28;20447;-59
2023/01/13 06:12:17;;;;;;;0.60;0.53;;;;;;;;;;5095644;28;20451;-59
2023/01/13 06:14:44;;;;;;;0.70;0.60;;;;;;;;;;5095602;28;20829;-59
2023/01/13 06:17:12;;;;;;;4.10;0.63;;;;;;;;;;5095579;28;20447;-59
2023/01/13 06:19:39;;;;;;;0.67;0.60;;;;;;;;;;5095785;28;20966;-59
2023/01/13 06:22:12;;;;;;;0.70;0.60;;;;;;;;;;5095652;28;20482;-59
2023/01/13 06:24:39;;;;;;;1.00;0.67;;;;;;;;;;5095561;28;20459;-59
2023/01/13 06:27:07;;;;;;;0.60;0.53;;;;;;;;;;5094779;28;20544;-59
2023/01/13 06:29:34;;;;;;;1.00;0.60;;;;;;;;;;5095385;28;20548;-60
2023/01/13 06:32:03;;;;;;;0.60;0.50;;;;;;;;;;5095281;28;20479;-59
2023/01/13 06:34:29;;;;;;;0.70;0.60;;;;;;;;;;5095147;28;20489;-59
2023/01/13 06:36:57;;;;;;;0.70;0.50;;;;;;;;;;5095193;28;20487;-59
2023/01/13 06:39:29;;;;;;;0.80;0.50;;;;;;;;;;5095271;28;20447;-59
2023/01/13 06:44:41;;;;;;;0.80;0.60;;;;;;;;;;5094992;28;20816;-59
2023/01/13 06:47:08;;;;;;;0.60;0.50;;;;;;;;;;5095005;28;20965;-59
2023/01/13 06:49:35;;;;;;;1.13;0.80;;;;;;;;;;5095095;28;20750;-59
2023/01/13 06:52:02;;;;;;;1.47;0.70;;;;;;;;;;5094937;28;20960;-59
2023/01/13 06:54:30;;;;;;;0.70;0.60;;;;;;;;;;5094754;28;20475;-59
2023/01/13 06:56:57;;;;;;;0.60;0.50;;;;;;;;;;5094736;28;20447;-59
2023/01/13 06:59:24;;;;;;;1.37;0.90;;;;;;;;;;5094781;28;20814;-59
2023/01/13 07:01:51;;;;;;;1.13;1.03;;;;;;;;;;5094847;28;20455;-59
2023/01/13 07:04:18;;;;;;;1.07;0.90;;;;;;;;;;5094760;28;20551;-58
2023/01/13 07:06:45;;;;;;;0.80;0.70;;;;;;;;;;5094624;28;20875;-59
2023/01/13 07:09:12;;;;;;;1.33;0.80;;;;;;;;;;5094610;28;20482;-59
2023/01/13 07:11:40;;;;;;;0.60;0.50;;;;;;;;;;5094765;28;20443;-59
2023/01/13 07:16:52;;;;;;;1.33;0.60;;;;;;;;;;5094469;28;20985;-58
2023/01/13 07:19:22;;;;;;;0.70;0.50;;;;;;;;;;5094495;28;20459;-59
2023/01/13 07:21:49;;;;;;;0.70;0.60;;;;;;;;;;5094293;28;20497;-59
2023/01/13 07:24:16;;;;;;;0.80;0.60;;;;;;;;;;5094500;28;20760;-59
2023/01/13 07:26:44;;;;;;;0.70;0.70;;;;;;;;;;5094372;28;20447;-58
2023/01/13 07:29:12;;;;;;;0.80;0.73;;;;;;;;;;5094429;28;20449;-58
2023/01/13 07:31:39;;;;;;;0.93;0.83;;;;;;;;;;5094205;28;20534;-58
2023/01/13 07:34:06;;;;;;;0.70;0.60;;;;;;;;;;5094201;28;20451;-59
2023/01/13 07:36:33;;;;;;;0.60;0.60;;;;;;;;;;5094394;28;20447;-58
2023/01/13 07:39:00;;;;;;;3.13;0.60;;;;;;;;;;5093151;28;20490;-59
2023/01/13 07:44:13;;;;;;;0.90;0.80;;;;;;;;;;5093894;28;20489;-58
2023/01/13 07:46:41;;;;;;;0.80;0.70;;;;;;;;;;5093870;28;20848;-59
2023/01/13 07:49:08;;;;;;;0.80;0.70;;;;;;;;;;5094086;28;20544;-58
2023/01/13 07:51:36;;;;;;;1.90;0.90;;;;;;;;;;5093869;28;20543;-59
2023/01/13 07:54:03;;;;;;;0.90;0.50;;;;;;;;;;5093852;28;20443;-59
2023/01/13 07:56:29;;;;;;;3.20;0.67;;;;;;;;;;5093943;28;20482;-59
2023/01/13 07:58:56;;;;;;;0.70;0.70;;;;;;;;;;5093804;28;20562;-59
2023/01/13 08:01:26;;;;;;;0.70;0.60;;;;;;;;;;5093663;28;20454;-58
2023/01/13 08:03:53;;;;;;;0.80;0.60;;;;;;;;;;5093746;28;20506;-58
2023/01/13 08:06:20;;;;;;;1.00;0.80;;;;;;;;;;5093608;28;20463;-59
2023/01/13 08:08:47;;;;;;;1.30;0.77;;;;;;;;;;5093564;28;20540;-59
2023/01/13 08:11:14;;;;;;;1.03;0.70;;;;;;;;;;5093505;28;20926;-59
2023/01/13 08:13:41;;;;;;;0.70;0.70;;;;;;;;;;5093404;28;20451;-59
2023/01/13 08:16:09;;;;;;;1.80;0.70;;;;;;;;;;5093261;28;20479;-59
2023/01/13 08:18:38;;;;;;;1.50;0.70;;;;;;;;;;5093264;28;20530;-58
2023/01/13 08:21:06;;;;;;;0.77;0.73;;;;;;;;;;5093040;28;20458;-58
2023/01/13 08:23:33;;;;;;;0.77;0.70;;;;;;;;;;5092844;28;20503;-59
2023/01/13 08:26:01;;;;;;;1.70;0.60;;;;;;;;;;5093630;28;20453;-62
2023/01/13 08:28:28;;;;;;;2.10;1.20;;;;;;;;;;5092990;28;20443;-61
2023/01/13 08:30:55;;;;;;;1.43;0.70;;;;;;;;;;5094696;28;20444;-59
2023/01/13 08:33:22;;;;;;;0.93;0.80;;;;;;;;;;5093491;28;20463;-57
2023/01/13 08:35:52;;;;;;;0.87;0.60;;;;;;;;;;5093063;28;20570;-58
2023/01/13 08:38:19;;;;;;;0.70;0.60;;;;;;;;;;5093370;28;20542;-58
2023/01/13 08:40:46;;;;;;;1.27;0.63;;;;;;;;;;5093010;28;20447;-62
2023/01/13 08:43:13;;;;;;;1.10;0.70;;;;;;;;;;5092933;28;20534;-62
2023/01/13 08:45:40;;;;;;;1.37;0.60;;;;;;;;;;5092773;28;20485;-59
2023/01/13 08:48:07;;;;;;;0.70;0.63;;;;;;;;;;5093164;28;20447;-56
2023/01/13 08:50:33;;;;;;;1.10;0.67;;;;;;;;;;5092614;28;20462;-54
2023/01/13 08:53:02;;;;;;;1.27;0.60;;;;;;;;;;5093093;28;20810;-60
2023/01/13 08:55:29;;;;;;;0.90;0.80;;;;;;;;;;5092682;28;20825;-60
2023/01/13 08:57:56;;;;;;;0.70;0.60;;;;;;;;;;5093109;28;20537;-60
2023/01/13 09:00:23;;;;;;;1.57;0.70;;;;;;;;;;5092986;28;20482;-61
2023/01/13 09:02:50;;;;;;;0.73;0.70;;;;;;;;;;5092942;28;20809;-63
2023/01/13 09:05:17;;;;;;;0.70;0.50;;;;;;;;;;5092672;28;20454;-59
2023/01/13 09:07:44;;;;;;;0.87;0.50;;;;;;;;;;5092830;28;20814;-60
2023/01/13 09:10:12;;;;;;;0.87;0.60;;;;;;;;;;5092391;28;20449;-60
2023/01/13 09:15:38;;;;;;;1.53;0.50;;;;;;;;;;5030567;28;20474;-63
2023/01/13 09:18:05;;;;;;;1.40;0.70;;;;;;;;;;5029884;28;20472;-60
2023/01/13 09:20:32;;;;;;;0.80;0.60;;;;;;;;;;5057708;28;20196;-60
2023/01/13 09:22:59;;;;;;;1.53;0.60;;;;;;;;;;5092809;28;20452;-60
2023/01/13 09:25:28;;;;;;;1.13;0.60;;;;;;;;;;5092461;28;20443;-59
2023/01/13 09:27:54;;;;;;;1.10;0.60;;;;;;;;;;5092705;28;20802;-57
2023/01/13 09:30:22;;;;;;;1.03;0.60;;;;;;;;;;5092279;28;20504;-57
2023/01/13 09:32:49;;;;;;;1.60;0.77;;;;;;;;;;5092352;28;20443;-59
2023/01/13 09:35:16;;;;;;;0.87;0.60;;;;;;;;;;5092004;28;20544;-60
2023/01/13 09:37:43;;;;;;;1.00;0.83;;;;;;;;;;5092753;28;20451;-67
2023/01/13 09:40:13;;;;;;;0.80;0.70;;;;;;;;;;5092033;28;20451;-60
2023/01/13 09:45:31;;;;;;;1.00;0.60;;;;;;;;;;5092419;28;20482;-67
2023/01/13 09:48:00;;;;;;;0.87;0.70;;;;;;;;;;5092788;28;20454;-75
2023/01/13 09:50:34;;;;;;;0.80;0.50;;;;;;;;;;5092245;28;20450;-61
2023/01/13 09:53:01;;;;;;;0.87;0.50;;;;;;;;;;5092276;28;20451;-63
2023/01/13 09:55:30;;;;;;;1.97;0.60;;;;;;;;;;5092047;28;20473;-62
2023/01/13 09:57:59;;;;;;;0.90;0.70;;;;;;;;;;5091925;28;20518;-61
2023/01/13 10:00:28;;;;;;;2.90;0.80;;;;;;;;;;5092522;28;20542;-59
2023/01/13 10:03:02;;;;;;;0.90;0.70;;;;;;;;;;5093678;28;20534;-65
2023/01/13 10:05:35;;;;;;;0.83;0.60;;;;;;;;;;5095702;28;20450;-64
2023/01/13 10:08:04;;;;;;;1.57;0.63;;;;;;;;;;5095904;28;20876;-62
2023/01/13 10:10:34;;;;;;;0.70;0.53;;;;;;;;;;5095422;28;20477;-55
2023/01/13 10:13:14;;;;;;;0.73;0.50;;;;;;;;;;5095922;28;20946;-61
2023/01/13 10:15:43;;;;;;;0.80;0.70;;;;;;;;;;5095533;28;20477;-64
2023/01/13 10:18:15;;;;;;;3.67;0.90;;;;;;;;;;5095558;28;20446;-61
2023/01/13 10:20:49;;;;;;;1.00;0.90;;;;;;;;;;5095476;28;20497;-64
2023/01/13 10:23:33;;;;;;;2.00;0.80;;;;;;;;;;5095160;28;20456;-67
2023/01/13 10:26:04;;;;;;;1.37;0.90;;;;;;;;;;5095488;28;20516;-66
2023/01/13 10:28:33;;;;;;;4.10;0.80;;;;;;;;;;5095577;28;20465;-66
2023/01/13 10:31:00;;;;;;;2.30;0.87;;;;;;;;;;5095334;28;20490;-66
2023/01/13 10:33:27;;;;;;;2.40;0.80;;;;;;;;;;5095267;28;20478;-66
2023/01/13 10:35:56;;;;;;;1.23;0.80;;;;;;;;;;5095268;28;20510;-70
2023/01/13 10:38:24;;;;;;;1.53;0.77;;;;;;;;;;5095238;28;20455;-63
2023/01/13 10:40:52;;;;;;;2.17;1.00;;;;;;;;;;5095245;28;20494;-66
2023/01/13 10:43:19;;;;;;;0.90;0.60;;;;;;;;;;5095506;28;20486;-63
2023/01/13 10:46:01;;;;;;;1.27;0.70;;;;;;;;;;5095000;28;20483;-63
2023/01/13 10:48:33;;;;;;;1.97;0.73;;;;;;;;;;5095235;28;20447;-59
2023/01/13 10:51:10;;;;;;;1.10;0.70;;;;;;;;;;5095047;28;20447;-60
2023/01/13 10:53:45;;;;;;;1.60;0.90;;;;;;;;;;5094897;28;20855;-61
2023/01/13 10:56:16;;;;;;;1.50;0.90;;;;;;;;;;5094652;28;20478;-64
2023/01/13 10:58:43;;;;;;;1.30;0.60;;;;;;;;;;5094849;28;20444;-59
2023/01/13 11:01:18;;;;;;;1.30;0.60;;;;;;;;;;5094772;28;20841;-59
2023/01/13 11:03:47;;;;;;;1.17;1.07;;;;;;;;;;5094237;28;20450;-59
2023/01/13 11:06:20;;;;;;;2.40;1.00;;;;;;;;;;5094412;28;20454;-61
2023/01/13 11:08:48;;;;;;;2.83;0.77;;;;;;;;;;5094394;28;20548;-61
2023/01/13 11:11:33;;;;;;;1.33;0.60;;;;;;;;;;5094014;28;20491;-61
2023/01/13 11:16:51;;;;;;;1.10;0.60;;;;;;;;;;5094314;28;20920;-60
2023/01/13 11:19:21;;;;;;;0.80;0.70;;;;;;;;;;5094434;28;20453;-60
2023/01/13 11:21:50;;;;;;;2.80;1.10;;;;;;;;;;5094139;28;20449;-59
2023/01/13 11:24:20;;;;;;;1.47;0.63;;;;;;;;;;5094342;28;20197;-60
2023/01/13 11:26:52;;;;;;;1.00;0.80;;;;;;;;;;5094147;28;20447;-61
2023/01/13 11:29:24;;;;;;;1.30;1.20;;;;;;;;;;5094340;28;20443;-61
2023/01/13 11:31:54;;;;;;;1.50;1.40;;;;;;;;;;5094058;28;20443;-62
2023/01/13 11:34:28;;;;;;;1.33;1.03;;;;;;;;;;5094697;28;20454;-64
2023/01/13 11:36:57;;;;;;;1.40;1.10;;;;;;;;;;5094136;28;20985;-58
2023/01/13 11:39:26;;;;;;;1.83;1.23;;;;;;;;;;5094208;28;20443;-59
2023/01/13 11:44:45;;;;;;;0.80;0.60;;;;;;;;;;5094043;28;20467;-58
2023/01/13 11:47:14;;;;;;;1.77;0.90;;;;;;;;;;5093942;28;20453;-53
2023/01/13 11:49:47;;;;;;;2.23;0.60;;;;;;;;;;5093978;28;20506;-56
2023/01/13 11:52:16;;;;;;;0.90;0.80;;;;;;;;;;5094035;28;20461;-56
2023/01/13 11:54:50;;;;;;;1.27;0.80;;;;;;;;;;5093775;28;20449;-56
2023/01/13 11:57:30;;;;;;;4.33;1.00;;;;;;;;;;5093836;28;20486;-53
2023/01/13 12:00:10;;;;;;;0.60;0.50;;;;;;;;;;5093823;28;20485;-56
2023/01/13 12:02:52;;;;;;;3.53;0.67;;;;;;;;;;5093769;28;20792;-56
2023/01/13 12:05:23;;;;;;;1.90;1.10;;;;;;;;;;5091710;28;21004;-54
2023/01/13 12:07:56;;;;;;;2.20;0.63;;;;;;;;;;5093756;28;20447;-54
2023/01/13 12:10:30;;;;;;;1.37;0.70;;;;;;;;;;5093770;28;20538;-56
2023/01/13 12:13:02;;;;;;;3.37;0.90;;;;;;;;;;5093651;28;20533;-52
2023/01/13 12:15:36;;;;;;;2.13;0.93;;;;;;;;;;5093471;28;20756;-56
2023/01/13 12:18:18;;;;;;;2.30;0.90;;;;;;;;;;5093724;28;20447;-52
2023/01/13 12:20:51;;;;;;;2.30;0.70;;;;;;;;;;5093663;28;20449;-55
2023/01/13 12:23:22;;;;;;;2.23;0.93;;;;;;;;;;5093370;28;20443;-56
2023/01/13 12:25:53;;;;;;;2.53;0.80;;;;;;;;;;5092557;28;20449;-54
2023/01/13 12:28:22;;;;;;;1.67;1.00;;;;;;;;;;5093527;28;20439;-51
2023/01/13 12:30:50;;;;;;;2.50;0.83;;;;;;;;;;5093334;28;20469;-55
2023/01/13 12:33:25;;;;;;;2.60;0.70;;;;;;;;;;5093232;28;20526;-54
2023/01/13 12:35:59;;;;;;;1.00;0.70;;;;;;;;;;5093327;28;20449;-55
2023/01/13 12:38:31;;;;;;;1.87;0.80;;;;;;;;;;5092991;28;20503;-55
2023/01/13 12:41:03;;;;;;;1.73;0.90;;;;;;;;;;5093124;28;20449;-52
2023/01/13 12:46:33;;;;;;;2.90;0.80;;;;;;;;;;5093111;28;20438;-53
2023/01/13 12:49:07;;;;;;;6.43;1.20;;;;;;;;;;5093388;28;20868;-57
2023/01/13 12:51:36;;;;;;;2.40;1.13;;;;;;;;;;5092975;28;20446;-53
2023/01/13 12:54:06;;;;;;;2.10;1.20;;;;;;;;;;5093067;28;20447;-53
2023/01/13 12:56:40;;;;;;;2.23;1.10;;;;;;;;;;5092948;28;20472;-56
2023/01/13 12:59:26;;;;;;;3.40;1.30;;;;;;;;;;5092863;28;20478;-55
2023/01/13 13:02:14;;;;;;;2.67;1.33;;;;;;;;;;5093023;28;20874;-55
2023/01/13 13:04:47;;;;;;;2.37;0.93;;;;;;;;;;5092724;28;20481;-52
2023/01/13 13:07:16;;;;;;;3.90;1.00;;;;;;;;;;5092814;28;20447;-51
2023/01/13 13:09:43;;;;;;;4.50;1.83;;;;;;;;;;5092621;28;20443;-55
2023/01/13 13:15:20;;;;;;;3.50;1.07;;;;;;;;;;5092896;28;20427;-54
2023/01/13 13:18:01;;;;;;;11.53;2.27;;;;;;;;;;5092697;28;20511;-52
2023/01/13 13:20:49;;;;;;;2.20;1.27;;;;;;;;;;5092966;28;20853;-50
2023/01/13 13:23:35;;;;;;;2.67;1.00;;;;;;;;;;5092836;28;20451;-55
2023/01/13 13:26:06;;;;;;;2.50;1.00;;;;;;;;;;5092677;28;21020;-54
2023/01/13 13:28:34;;;;;;;2.00;0.80;;;;;;;;;;5092622;28;20530;-53
2023/01/13 13:31:06;;;;;;;3.47;1.00;;;;;;;;;;5092708;28;20442;-56
2023/01/13 13:33:49;;;;;;;1.10;0.90;;;;;;;;;;5092708;28;20450;-55
2023/01/13 13:36:32;;;;;;;3.03;0.93;;;;;;;;;;5093062;28;20483;-54
2023/01/13 13:47:23;;;;;;;1.20;0.90;;;;;;;;;;5096416;28;20535;-50
2023/01/13 13:49:52;;;;;;;2.30;1.20;;;;;;;;;;5096325;28;20439;-51
2023/01/13 13:52:20;;;;;;;4.77;1.10;;;;;;;;;;5096167;28;20447;-53
2023/01/13 13:54:51;;;;;;;6.73;2.60;;;;;;;;;;5096219;28;20449;-54
2023/01/13 13:57:19;;;;;;;3.67;0.77;;;;;;;;;;5095944;28;20478;-56
2023/01/13 13:59:47;;;;;;;1.27;0.90;;;;;;;;;;5096036;28;20541;-50
2023/01/13 14:02:19;;;;;;;1.40;1.07;;;;;;;;;;5096158;28;20451;-51
2023/01/13 14:04:45;;;;;;;3.07;1.00;;;;;;;;;;5096338;28;20455;-55
2023/01/13 14:07:19;;;;;;;2.80;0.93;;;;;;;;;;5095968;28;20443;-55
2023/01/13 14:09:47;;;;;;;2.13;1.10;;;;;;;;;;5096035;28;20451;-56
2023/01/13 14:12:19;;;;;;;3.80;1.20;;;;;;;;;;5095758;28;20802;-56
2023/01/13 14:14:47;;;;;;;4.20;1.23;;;;;;;;;;5095945;28;20876;-56
2023/01/13 14:17:19;;;;;;;1.97;1.10;;;;;;;;;;5095723;28;20485;-56
2023/01/13 14:19:51;;;;;;;2.53;1.00;;;;;;;;;;5095858;28;20537;-54
2023/01/13 14:22:18;;;;;;;2.67;1.17;;;;;;;;;;5095716;28;21026;-56
2023/01/13 14:24:46;;;;;;;4.73;1.77;;;;;;;;;;5095407;28;20502;-55
2023/01/13 14:27:15;;;;;;;4.17;1.20;;;;;;;;;;5095709;28;20451;-55
2023/01/13 14:29:44;;;;;;;2.63;0.90;;;;;;;;;;5095481;28;20542;-56
2023/01/13 14:32:13;;;;;;;1.57;1.10;;;;;;;;;;5095264;28;20464;-55
2023/01/13 14:34:40;;;;;;;6.23;0.90;;;;;;;;;;5095355;28;20783;-56
2023/01/13 14:37:21;;;;;;;3.63;1.10;;;;;;;;;;5095149;28;20471;-56
2023/01/13 14:39:48;;;;;;;1.83;0.80;;;;;;;;;;5095171;28;20449;-56
2023/01/13 14:42:17;;;;;;;3.00;1.53;;;;;;;;;;5095316;28;20454;-56
2023/01/13 14:44:46;;;;;;;4.67;1.00;;;;;;;;;;5095078;28;20474;-56
2023/01/13 14:47:21;;;;;;;3.07;1.13;;;;;;;;;;5095115;28;20451;-55
2023/01/13 14:49:57;;;;;;;6.30;1.70;;;;;;;;;;5094277;28;20616;-55
2023/01/13 14:52:25;;;;;;;3.03;1.63;;;;;;;;;;5094942;28;20854;-54
2023/01/13 14:54:52;;;;;;;4.13;2.33;;;;;;;;;;5095107;28;20466;-56
2023/01/13 14:57:27;;;;;;;2.03;1.03;;;;;;;;;;5095049;28;20587;-56
2023/01/13 15:00:03;;;;;;;1.60;1.07;;;;;;;;;;5095011;28;20461;-55
2023/01/13 15:02:41;;;;;;;4.57;1.60;;;;;;;;;;5095025;28;20446;-56
2023/01/13 15:05:29;;;;;;;1.67;1.33;;;;;;;;;;5094925;28;20443;-56
2023/01/13 15:07:56;;;;;;;3.00;1.20;;;;;;;;;;5094771;28;20537;-56
2023/01/13 15:10:25;;;;;;;3.57;1.00;;;;;;;;;;5094878;28;20950;-54
2023/01/13 15:12:53;;;;;;;3.37;1.10;;;;;;;;;;5094890;28;20443;-56
2023/01/13 15:15:23;;;;;;;2.30;1.50;;;;;;;;;;5094877;28;20453;-56
2023/01/13 15:17:50;;;;;;;3.10;2.00;;;;;;;;;;5094643;28;20478;-56
2023/01/13 15:20:19;;;;;;;4.00;1.50;;;;;;;;;;5094635;28;20447;-56
2023/01/13 15:22:46;;;;;;;4.90;1.60;;;;;;;;;;5094440;28;20450;-56
2023/01/13 15:25:13;;;;;;;2.83;1.40;;;;;;;;;;5094305;28;20449;-56
2023/01/13 15:27:40;;;;;;;3.90;2.00;;;;;;;;;;5094434;28;20447;-56
2023/01/13 15:30:13;;;;;;;6.40;1.17;;;;;;;;;;5094757;28;20439;-56
2023/01/13 15:32:42;;;;;;;5.30;1.90;;;;;;;;;;5094380;28;20457;-54
2023/01/13 15:35:10;;;;;;;3.60;1.50;;;;;;;;;;5094244;28;20450;-56
2023/01/13 15:37:37;;;;;;;4.00;1.70;;;;;;;;;;5094224;28;20485;-56
2023/01/13 15:40:04;;;;;;;5.27;1.63;;;;;;;;;;5094284;28;20541;-56
2023/01/13 15:48:03;;;;;;;4.37;1.20;;;;;;;;;;5093960;28;20798;-56
2023/01/13 15:50:30;;;;;;;2.43;1.17;;;;;;;;;;5094136;28;20545;-56
2023/01/13 15:52:56;;;;;;;2.47;1.50;;;;;;;;;;5094096;28;20453;-56
2023/01/13 15:55:23;;;;;;;2.73;1.20;;;;;;;;;;5094078;28;20453;-56
2023/01/13 15:57:50;;;;;;;1.77;1.60;;;;;;;;;;5093774;28;20482;-57
2023/01/13 16:00:19;;;;;;;2.60;1.30;;;;;;;;;;5092947;28;20810;-56
2023/01/13 16:02:46;;;;;;;2.30;1.33;;;;;;;;;;5093612;28;20443;-56
2023/01/13 16:05:14;;;;;;;8.00;1.73;;;;;;;;;;5093868;28;20443;-56